createdAt,value
2022-07-30T00:00:37.108Z,20.79
2022-07-30T00:03:05.531Z,20.71
2022-07-30T00:05:34.208Z,20.60
2022-07-30T00:08:02.468Z,20.74
2022-07-30T00:10:30.843Z,20.71
2022-07-30T00:12:59.250Z,20.70
2022-07-30T00:15:27.705Z,20.67
2022-07-30T00:17:56.251Z,20.64
2022-07-30T00:20:28.029Z,20.60
2022-07-30T00:22:56.890Z,20.58
2022-07-30T00:25:25.149Z,20.49
2022-07-30T00:27:53.445Z,20.44
2022-07-30T00:30:21.770Z,20.41
2022-07-30T00:32:50.431Z,20.36
2022-07-30T00:35:18.751Z,20.32
2022-07-30T00:37:47.497Z,20.28
2022-07-30T00:40:16.089Z,20.31
2022-07-30T00:42:47.364Z,20.25
2022-07-30T00:45:17.780Z,20.22
2022-07-30T00:47:46.284Z,20.14
2022-07-30T00:50:15.656Z,20.20
2022-07-30T00:52:44.792Z,20.18
2022-07-30T00:55:14.935Z,20.15
2022-07-30T00:57:44.538Z,20.13
2022-07-30T01:00:16.069Z,20.08
2022-07-30T01:02:44.802Z,20.08
2022-07-30T01:05:13.867Z,20.12
2022-07-30T01:07:42.420Z,19.98
2022-07-30T01:10:14.422Z,20.03
2022-07-30T01:12:44.271Z,20.03
2022-07-30T01:15:12.905Z,20.01
2022-07-30T01:17:41.796Z,19.99
2022-07-30T01:20:32.352Z,19.96
2022-07-30T01:23:23.889Z,19.91
2022-07-30T01:25:58.657Z,19.88
2022-07-30T01:28:32.616Z,19.85
2022-07-30T01:31:01.254Z,19.84
2022-07-30T01:33:30.440Z,19.76
2022-07-30T01:36:01.006Z,19.75
2022-07-30T01:38:35.095Z,19.73
2022-07-30T01:41:04.238Z,19.72
2022-07-30T01:43:34.418Z,19.69
2022-07-30T01:46:07.427Z,19.64
2022-07-30T01:48:40.664Z,19.63
2022-07-30T01:51:12.981Z,19.59
2022-07-30T01:53:45.886Z,19.54
2022-07-30T01:56:16.911Z,19.55
2022-07-30T01:58:47.115Z,19.61
2022-07-30T02:01:35.615Z,19.50
2022-07-30T02:04:05.005Z,19.48
2022-07-30T02:06:46.718Z,19.42
2022-07-30T02:09:29.945Z,19.41
2022-07-30T02:12:17.841Z,19.34
2022-07-30T02:15:00.694Z,19.31
2022-07-30T02:18:01.291Z,19.30
2022-07-30T02:20:32.222Z,19.25
2022-07-30T02:23:10.649Z,19.17
2022-07-30T02:25:44.881Z,19.20
2022-07-30T02:28:15.974Z,19.20
2022-07-30T02:30:57.648Z,19.17
2022-07-30T02:33:33.529Z,19.15
2022-07-30T02:36:03.724Z,19.14
2022-07-30T02:38:40.209Z,19.16
2022-07-30T02:41:08.987Z,19.05
2022-07-30T02:43:40.977Z,19.07
2022-07-30T02:46:11.963Z,19.08
2022-07-30T02:49:03.823Z,19.12
2022-07-30T02:51:33.903Z,19.08
2022-07-30T02:54:03.926Z,19.06
2022-07-30T02:56:32.831Z,19.03
2022-07-30T02:59:03.728Z,18.96
2022-07-30T03:01:33.453Z,18.92
2022-07-30T03:04:03.421Z,18.88
2022-07-30T03:06:33.093Z,18.90
2022-07-30T03:09:03.753Z,18.90
2022-07-30T03:11:33.295Z,18.90
2022-07-30T03:14:03.255Z,18.89
2022-07-30T03:16:34.638Z,18.84
2022-07-30T03:19:07.038Z,18.82
2022-07-30T03:21:37.410Z,18.79
2022-07-30T03:24:07.909Z,18.71
2022-07-30T03:26:37.837Z,18.74
2022-07-30T03:29:08.845Z,18.68
2022-07-30T03:31:40.684Z,18.67
2022-07-30T03:34:09.907Z,18.65
2022-07-30T03:36:41.613Z,18.64
2022-07-30T03:39:10.380Z,18.60
2022-07-30T03:41:39.484Z,18.59
2022-07-30T03:44:11.488Z,18.62
2022-07-30T03:46:43.310Z,18.59
2022-07-30T03:49:12.263Z,18.57
2022-07-30T03:51:46.305Z,18.56
2022-07-30T03:54:16.336Z,18.52
2022-07-30T03:57:07.377Z,18.50
2022-07-30T03:59:41.381Z,18.46
2022-07-30T04:02:09.946Z,18.43
2022-07-30T04:04:57.474Z,18.40
2022-07-30T04:07:25.844Z,18.35
2022-07-30T04:09:54.495Z,18.36
2022-07-30T04:12:58.185Z,18.31
2022-07-30T04:16:04.782Z,18.30
2022-07-30T04:18:17.446Z,18.27
2022-07-30T04:20:47.610Z,18.25
2022-07-30T04:23:16.502Z,18.23
2022-07-30T04:25:45.717Z,18.22
2022-07-30T04:28:14.661Z,18.20
2022-07-30T04:30:42.987Z,18.16
2022-07-30T04:33:11.344Z,18.15
2022-07-30T04:35:59.075Z,18.10
2022-07-30T04:38:33.392Z,18.12
2022-07-30T04:41:02.011Z,18.18
2022-07-30T04:43:34.928Z,18.19
2022-07-30T04:46:03.906Z,18.21
2022-07-30T04:48:32.473Z,18.14
2022-07-30T04:51:35.010Z,18.24
2022-07-30T04:54:15.326Z,18.29
2022-07-30T04:56:53.233Z,18.31
2022-07-30T04:59:25.083Z,18.35
2022-07-30T05:01:53.808Z,18.46
2022-07-30T05:04:24.293Z,18.38
2022-07-30T05:06:56.081Z,18.42
2022-07-30T05:09:24.905Z,18.46
2022-07-30T05:11:55.094Z,18.48
2022-07-30T05:14:24.238Z,18.52
2022-07-30T05:16:53.470Z,18.54
2022-07-30T05:19:23.550Z,18.55
2022-07-30T05:21:52.059Z,18.59
2022-07-30T05:24:20.486Z,18.63
2022-07-30T05:26:58.230Z,18.66
2022-07-30T05:29:30.241Z,18.77
2022-07-30T05:32:08.832Z,18.75
2022-07-30T05:34:38.434Z,18.76
2022-07-30T05:37:09.824Z,18.79
2022-07-30T05:39:57.168Z,18.80
2022-07-30T05:42:46.944Z,18.92
2022-07-30T05:45:15.202Z,18.99
2022-07-30T05:47:44.447Z,19.07
2022-07-30T05:50:12.954Z,19.09
2022-07-30T05:52:42.226Z,19.14
2022-07-30T05:55:30.383Z,19.20
2022-07-30T05:58:16.164Z,19.19
2022-07-30T06:00:44.439Z,19.25
2022-07-30T06:03:13.743Z,19.38
2022-07-30T06:06:14.218Z,19.42
2022-07-30T06:08:44.075Z,19.44
2022-07-30T06:11:12.380Z,19.52
2022-07-30T06:13:42.031Z,19.64
2022-07-30T06:16:10.503Z,19.67
2022-07-30T06:18:40.117Z,19.73
2022-07-30T06:21:16.115Z,19.85
2022-07-30T06:24:07.407Z,19.98
2022-07-30T06:26:46.735Z,20.01
2022-07-30T06:29:15.892Z,20.12
2022-07-30T06:31:44.324Z,20.18
2022-07-30T06:34:14.172Z,20.25
2022-07-30T06:36:44.381Z,20.33
2022-07-30T06:39:57.446Z,20.41
2022-07-30T06:42:27.071Z,20.54
2022-07-30T06:45:14.040Z,20.60
2022-07-30T06:48:16.871Z,20.74
2022-07-30T06:50:45.565Z,20.78
2022-07-30T06:53:14.003Z,20.74
2022-07-30T06:56:00.749Z,20.91
2022-07-30T06:58:36.513Z,20.96
2022-07-30T07:01:24.964Z,21.00
2022-07-30T07:03:55.024Z,21.16
2022-07-30T07:06:23.393Z,21.22
2022-07-30T07:08:51.659Z,21.10
2022-07-30T07:11:27.681Z,21.30
2022-07-30T07:14:04.304Z,21.20
2022-07-30T07:16:36.349Z,21.54
2022-07-30T07:19:59.990Z,21.61
2022-07-30T07:22:12.674Z,21.68
2022-07-30T07:24:43.420Z,21.77
2022-07-30T07:27:15.905Z,21.70
2022-07-30T07:30:01.374Z,21.90
2022-07-30T07:32:36.761Z,21.95
2022-07-30T07:35:07.196Z,22.02
2022-07-30T07:37:39.880Z,22.04
2022-07-30T07:40:10.175Z,22.01
2022-07-30T07:42:42.840Z,22.05
2022-07-30T07:45:11.671Z,22.39
2022-07-30T07:47:53.081Z,22.49
2022-07-30T07:50:50.703Z,22.34
2022-07-30T07:53:29.396Z,22.60
2022-07-30T07:55:57.845Z,22.57
2022-07-30T07:58:27.081Z,22.67
2022-07-30T08:00:59.432Z,22.52
2022-07-30T08:03:49.820Z,22.83
2022-07-30T08:06:38.063Z,22.83
2022-07-30T08:09:24.785Z,22.99
2022-07-30T08:12:18.671Z,23.04
2022-07-30T08:15:09.373Z,22.89
2022-07-30T08:17:55.793Z,23.17
2022-07-30T08:20:39.461Z,22.98
2022-07-30T08:23:08.432Z,22.96
2022-07-30T08:25:36.705Z,23.09
2022-07-30T08:28:05.166Z,23.33
2022-07-30T08:30:37.168Z,23.10
2022-07-30T08:33:05.435Z,23.31
2022-07-30T08:35:35.697Z,23.71
2022-07-30T08:38:10.816Z,23.52
2022-07-30T08:40:40.074Z,23.93
2022-07-30T08:43:08.860Z,24.10
2022-07-30T08:45:38.543Z,24.03
2022-07-30T08:48:27.903Z,23.65
2022-07-30T08:50:57.838Z,24.28
2022-07-30T08:53:35.992Z,24.45
2022-07-30T08:56:06.693Z,24.35
2022-07-30T08:58:35.491Z,24.28
2022-07-30T09:01:06.389Z,24.54
2022-07-30T09:03:35.422Z,24.66
2022-07-30T09:06:05.660Z,24.81
2022-07-30T09:08:34.218Z,24.79
2022-07-30T09:11:02.767Z,24.48
2022-07-30T09:13:37.669Z,24.97
2022-07-30T09:16:07.910Z,25.16
2022-07-30T09:18:44.294Z,25.17
2022-07-30T09:21:29.050Z,25.11
2022-07-30T09:24:14.216Z,25.21
2022-07-30T09:27:07.105Z,25.07
2022-07-30T09:29:59.435Z,24.74
2022-07-30T09:32:51.857Z,25.67
2022-07-30T09:35:44.226Z,25.71
2022-07-30T09:38:13.056Z,25.73
2022-07-30T09:41:00.162Z,26.85
2022-07-30T09:43:52.955Z,27.38
2022-07-30T09:46:51.466Z,27.68
2022-07-30T09:49:41.824Z,28.21
2022-07-30T09:52:29.345Z,28.86
2022-07-30T09:54:57.988Z,28.78
2022-07-30T09:57:29.896Z,29.57
2022-07-30T10:00:26.384Z,29.67
2022-07-30T10:03:33.956Z,30.52
2022-07-30T10:06:38.209Z,29.91
2022-07-30T10:09:33.038Z,30.44
2022-07-30T10:12:10.685Z,29.81
2022-07-30T10:14:46.666Z,30.09
2022-07-30T10:17:18.996Z,30.64
2022-07-30T10:20:08.934Z,31.25
2022-07-30T10:23:07.803Z,31.45
2022-07-30T10:25:49.532Z,32.21
2022-07-30T10:28:43.429Z,30.97
2022-07-30T10:31:49.127Z,30.86
2022-07-30T10:34:00.470Z,31.89
2022-07-30T10:36:29.594Z,31.87
2022-07-30T10:38:59.390Z,32.50
2022-07-30T10:42:22.284Z,33.16
2022-07-30T10:45:46.429Z,33.83
2022-07-30T10:48:19.891Z,34.48
2022-07-30T10:50:57.177Z,34.80
2022-07-30T10:53:46.675Z,35.53
2022-07-30T10:56:25.837Z,35.22
2022-07-30T10:59:12.682Z,35.69
2022-07-30T11:01:53.368Z,34.79
2022-07-30T11:04:25.717Z,35.51
2022-07-30T11:07:23.894Z,-149.27
2022-07-30T11:10:05.449Z,34.45
2022-07-30T11:12:52.754Z,35.59
2022-07-30T11:15:22.253Z,35.59
2022-07-30T11:18:12.368Z,-149.27
2022-07-30T11:20:48.258Z,35.43
2022-07-30T11:23:19.246Z,-149.27
2022-07-30T11:25:51.370Z,-149.27
2022-07-30T11:28:49.205Z,-149.27
2022-07-30T11:31:55.115Z,-149.27
2022-07-30T11:34:25.937Z,-149.27
2022-07-30T11:37:22.262Z,-149.27
2022-07-30T11:40:00.547Z,-149.27
2022-07-30T11:42:34.831Z,-149.27
2022-07-30T11:45:23.310Z,-149.27
2022-07-30T11:47:56.171Z,33.46
2022-07-30T11:50:43.944Z,33.43
2022-07-30T11:53:19.925Z,32.63
2022-07-30T11:55:56.405Z,31.79
2022-07-30T11:58:27.793Z,32.60
2022-07-30T12:01:01.636Z,33.14
2022-07-30T12:03:33.776Z,33.92
2022-07-30T12:06:13.618Z,33.65
2022-07-30T12:08:44.994Z,33.65
2022-07-30T12:11:13.840Z,37.34
2022-07-30T12:13:46.174Z,38.30
2022-07-30T12:16:17.856Z,38.78
2022-07-30T12:18:47.659Z,-149.27
2022-07-30T12:21:40.579Z,38.78
2022-07-30T12:24:11.581Z,-149.27
2022-07-30T12:26:39.966Z,-149.27
2022-07-30T12:29:11.622Z,-149.27
2022-07-30T12:31:40.880Z,37.91
2022-07-30T12:34:26.883Z,38.89
2022-07-30T12:36:55.420Z,38.34
2022-07-30T12:39:26.643Z,37.74
2022-07-30T12:41:56.132Z,39.01
2022-07-30T12:44:42.113Z,38.37
2022-07-30T12:47:27.249Z,38.65
2022-07-30T12:50:01.380Z,39.96
2022-07-30T12:52:38.417Z,39.99
2022-07-30T12:55:10.403Z,39.41
2022-07-30T12:57:53.485Z,38.63
2022-07-30T13:00:44.941Z,35.98
2022-07-30T13:03:28.240Z,38.13
2022-07-30T13:05:57.687Z,36.30
2022-07-30T13:08:57.643Z,35.83
2022-07-30T13:11:38.641Z,36.01
2022-07-30T13:14:07.506Z,37.59
2022-07-30T13:16:38.335Z,36.98
2022-07-30T13:19:11.389Z,36.40
2022-07-30T13:21:50.053Z,35.49
2022-07-30T13:24:23.298Z,35.54
2022-07-30T13:27:17.024Z,35.54
2022-07-30T13:29:45.429Z,35.05
2022-07-30T13:32:13.677Z,36.89
2022-07-30T13:34:42.035Z,36.73
2022-07-30T13:37:10.255Z,35.79
2022-07-30T13:39:46.272Z,36.67
2022-07-30T13:42:18.001Z,37.93
2022-07-30T13:45:00.413Z,38.15
2022-07-30T13:47:53.030Z,39.82
2022-07-30T13:50:22.529Z,39.86
2022-07-30T13:53:15.086Z,37.43
2022-07-30T13:55:43.721Z,36.90
2022-07-30T13:58:12.010Z,36.57
2022-07-30T14:00:48.030Z,35.28
2022-07-30T14:03:20.459Z,34.54
2022-07-30T14:05:49.552Z,35.71
2022-07-30T14:08:17.834Z,37.44
2022-07-30T14:10:47.152Z,36.18
2022-07-30T14:13:20.880Z,35.78
2022-07-30T14:15:49.807Z,36.06
2022-07-30T14:18:18.099Z,35.24
2022-07-30T14:20:48.859Z,34.00
2022-07-30T14:23:17.741Z,36.52
2022-07-30T14:25:46.017Z,37.06
2022-07-30T14:28:14.289Z,38.79
2022-07-30T14:30:43.116Z,36.64
2022-07-30T14:33:11.575Z,37.09
2022-07-30T14:35:40.885Z,37.97
2022-07-30T14:38:09.266Z,37.74
2022-07-30T14:40:37.559Z,36.73
2022-07-30T14:43:06.583Z,36.71
2022-07-30T14:45:36.904Z,38.14
2022-07-30T14:48:05.553Z,37.14
2022-07-30T14:50:39.418Z,36.05
2022-07-30T14:53:22.325Z,36.90
2022-07-30T14:55:50.908Z,36.75
2022-07-30T14:58:19.178Z,37.17
2022-07-30T15:00:48.982Z,37.76
2022-07-30T15:03:35.444Z,39.19
2022-07-30T15:06:04.525Z,40.25
2022-07-30T15:08:32.801Z,39.05
2022-07-30T15:11:02.657Z,38.28
2022-07-30T15:13:34.569Z,39.50
2022-07-30T15:16:06.206Z,39.11
2022-07-30T15:18:34.426Z,38.77
2022-07-30T15:21:02.670Z,38.19
2022-07-30T15:23:30.976Z,38.26
2022-07-30T15:25:59.268Z,39.41
2022-07-30T15:28:27.720Z,38.50
2022-07-30T15:30:56.066Z,38.15
2022-07-30T15:33:24.577Z,38.29
2022-07-30T15:35:52.794Z,38.11
2022-07-30T15:38:21.117Z,38.11
2022-07-30T15:40:49.451Z,37.62
2022-07-30T15:43:42.322Z,38.06
2022-07-30T15:46:10.744Z,36.84
2022-07-30T15:48:39.101Z,38.19
2022-07-30T15:51:07.861Z,37.02
2022-07-30T15:53:36.186Z,37.59
2022-07-30T15:56:04.715Z,37.24
2022-07-30T15:58:33.491Z,37.74
2022-07-30T16:01:02.111Z,37.34
2022-07-30T16:03:31.609Z,37.93
2022-07-30T16:05:59.930Z,37.22
2022-07-30T16:08:28.155Z,37.79
2022-07-30T16:10:56.395Z,35.22
2022-07-30T16:13:27.927Z,35.95
2022-07-30T16:15:56.144Z,36.01
2022-07-30T16:18:24.353Z,34.38
2022-07-30T16:20:52.659Z,35.27
2022-07-30T16:23:21.797Z,36.04
2022-07-30T16:25:50.241Z,36.14
2022-07-30T16:28:18.519Z,36.31
2022-07-30T16:30:51.218Z,36.96
2022-07-30T16:33:21.062Z,35.77
2022-07-30T16:35:50.955Z,35.23
2022-07-30T16:38:20.741Z,35.48
2022-07-30T16:40:55.001Z,33.76
2022-07-30T16:43:23.309Z,35.50
2022-07-30T16:45:51.545Z,35.23
2022-07-30T16:48:19.842Z,33.77
2022-07-30T16:50:52.027Z,34.77
2022-07-30T16:53:20.302Z,35.02
2022-07-30T16:55:48.846Z,34.18
2022-07-30T16:58:17.284Z,35.12
2022-07-30T17:00:45.514Z,34.88
2022-07-30T17:03:19.953Z,35.07
2022-07-30T17:05:48.676Z,34.42
2022-07-30T17:08:31.396Z,34.54
2022-07-30T17:10:59.710Z,33.83
2022-07-30T17:13:27.968Z,33.48
2022-07-30T17:15:56.275Z,33.85
2022-07-30T17:18:24.555Z,33.22
2022-07-30T17:20:53.370Z,33.29
2022-07-30T17:23:21.679Z,34.11
2022-07-30T17:26:01.325Z,34.27
2022-07-30T17:28:31.696Z,33.99
2022-07-30T17:30:59.995Z,33.47
2022-07-30T17:33:33.526Z,34.44
2022-07-30T17:36:02.224Z,34.51
2022-07-30T17:38:30.582Z,34.17
2022-07-30T17:40:58.808Z,33.76
2022-07-30T17:43:27.044Z,32.33
2022-07-30T17:45:55.292Z,32.74
2022-07-30T17:48:23.613Z,32.21
2022-07-30T17:50:51.835Z,31.13
2022-07-30T17:53:20.207Z,31.19
2022-07-30T17:55:57.718Z,30.94
2022-07-30T17:58:32.328Z,30.22
2022-07-30T18:01:04.640Z,29.48
2022-07-30T18:03:45.043Z,29.71
2022-07-30T18:06:19.242Z,29.90
2022-07-30T18:08:54.776Z,29.42
2022-07-30T18:11:24.387Z,29.07
2022-07-30T18:13:58.691Z,28.88
2022-07-30T18:16:33.190Z,28.69
2022-07-30T18:19:03.925Z,28.80
2022-07-30T18:21:35.769Z,28.56
2022-07-30T18:24:11.721Z,28.75
2022-07-30T18:26:42.597Z,29.06
2022-07-30T18:29:13.904Z,29.34
2022-07-30T18:31:46.870Z,29.10
2022-07-30T18:34:20.762Z,29.06
2022-07-30T18:36:51.131Z,28.69
2022-07-30T18:39:21.935Z,28.43
2022-07-30T18:41:51.060Z,28.58
2022-07-30T18:44:23.903Z,28.49
2022-07-30T18:46:52.166Z,28.26
2022-07-30T18:49:36.151Z,28.10
2022-07-30T18:52:06.696Z,28.17
2022-07-30T18:54:36.404Z,28.05
2022-07-30T18:57:05.879Z,27.91
2022-07-30T18:59:34.524Z,27.73
2022-07-30T19:02:04.722Z,27.19
2022-07-30T19:04:33.437Z,26.86
2022-07-30T19:07:01.965Z,27.03
2022-07-30T19:09:30.827Z,26.99
2022-07-30T19:11:59.078Z,27.00
2022-07-30T19:14:27.326Z,26.15
2022-07-30T19:16:59.464Z,26.49
2022-07-30T19:19:29.143Z,26.31
2022-07-30T19:21:57.633Z,26.26
2022-07-30T19:24:27.695Z,26.48
2022-07-30T19:26:56.499Z,26.48
2022-07-30T19:29:24.774Z,26.45
2022-07-30T19:31:52.976Z,26.36
2022-07-30T19:34:26.972Z,26.39
2022-07-30T19:36:55.222Z,26.29
2022-07-30T19:39:23.417Z,26.30
2022-07-30T19:41:55.200Z,26.26
2022-07-30T19:44:23.552Z,25.91
2022-07-30T19:46:52.652Z,26.05
2022-07-30T19:49:21.784Z,26.05
2022-07-30T19:52:10.769Z,26.00
2022-07-30T19:55:04.610Z,25.57
2022-07-30T19:57:54.522Z,25.67
2022-07-30T20:00:24.901Z,25.85
2022-07-30T20:03:26.114Z,25.78
2022-07-30T20:06:00.861Z,25.74
2022-07-30T20:08:54.206Z,25.68
2022-07-30T20:14:11.057Z,25.60
2022-07-30T20:16:48.309Z,25.55
2022-07-30T20:19:20.062Z,25.44
2022-07-30T20:21:56.643Z,25.42
2022-07-30T20:24:25.662Z,25.30
2022-07-30T20:26:59.281Z,25.34
2022-07-30T20:29:27.544Z,25.28
2022-07-30T20:31:55.775Z,25.16
2022-07-30T20:34:26.107Z,25.26
2022-07-30T20:36:56.727Z,25.28
2022-07-30T20:39:25.971Z,25.20
2022-07-30T20:42:13.416Z,25.26
2022-07-30T20:44:49.566Z,25.21
2022-07-30T20:47:38.280Z,25.07
2022-07-30T20:50:12.132Z,25.13
2022-07-30T20:52:46.684Z,25.13
2022-07-30T20:55:19.009Z,24.96
2022-07-30T20:57:58.745Z,25.09
2022-07-30T21:00:38.768Z,24.71
2022-07-30T21:03:13.803Z,25.00
2022-07-30T21:05:43.955Z,24.82
2022-07-30T21:08:13.454Z,25.02
2022-07-30T21:10:44.703Z,24.63
2022-07-30T21:13:32.350Z,24.92
2022-07-30T21:16:02.787Z,25.03
2022-07-30T21:18:32.785Z,25.01
2022-07-30T21:21:05.093Z,24.98
2022-07-30T21:23:34.209Z,25.02
2022-07-30T21:26:07.078Z,24.96
2022-07-30T21:28:38.900Z,24.98
2022-07-30T21:31:09.322Z,24.99
2022-07-30T21:33:37.751Z,24.91
2022-07-30T21:36:10.751Z,24.92
2022-07-30T21:38:41.833Z,24.89
2022-07-30T21:41:14.067Z,24.87
2022-07-30T21:43:46.555Z,24.81
2022-07-30T21:46:25.008Z,24.68
2022-07-30T21:48:59.287Z,24.72
2022-07-30T21:51:27.824Z,24.74
2022-07-30T21:53:57.846Z,24.68
2022-07-30T21:56:26.412Z,24.60
2022-07-30T21:58:55.170Z,24.50
2022-07-30T22:01:25.034Z,24.31
2022-07-30T22:04:05.350Z,24.28
2022-07-30T22:06:41.189Z,24.26
2022-07-30T22:09:18.948Z,24.07
2022-07-30T22:12:09.233Z,24.15
2022-07-30T22:14:40.681Z,24.14
2022-07-30T22:17:22.464Z,24.00
2022-07-30T22:20:02.060Z,24.04
2022-07-30T22:25:19.090Z,23.85
2022-07-30T22:27:56.558Z,23.87
2022-07-30T22:30:27.857Z,23.82
2022-07-30T22:33:10.638Z,23.61
2022-07-30T22:35:39.235Z,23.43
2022-07-30T22:38:08.037Z,23.52
2022-07-30T22:40:37.800Z,23.27
2022-07-30T22:43:13.917Z,23.25
2022-07-30T22:48:32.713Z,23.11
2022-07-30T22:51:03.297Z,23.25
2022-07-30T22:54:02.719Z,23.31
2022-07-30T22:56:23.750Z,23.29
2022-07-30T22:58:52.344Z,23.24
2022-07-30T23:01:20.609Z,23.12
2022-07-30T23:03:51.214Z,23.14
2022-07-30T23:06:20.619Z,23.06
2022-07-30T23:08:50.302Z,23.01
2022-07-30T23:11:18.655Z,22.86
2022-07-30T23:12:16.699Z,25.62
2022-07-30T23:12:28.646Z,23.95
2022-07-30T23:12:34.587Z,23.36
2022-07-30T23:13:49.087Z,22.84
2022-07-30T23:16:17.364Z,22.82
2022-07-30T23:18:45.655Z,22.77
2022-07-30T23:21:14.935Z,22.79
2022-07-30T23:23:43.206Z,22.73
2022-07-30T23:26:13.035Z,22.63
2022-07-30T23:28:41.513Z,22.57
2022-07-30T23:31:09.767Z,22.64
2022-07-30T23:33:38.044Z,22.58
2022-07-30T23:36:08.541Z,22.45
2022-07-30T23:38:37.233Z,22.61
2022-07-30T23:41:06.648Z,22.59
2022-07-30T23:43:35.695Z,22.39
2022-07-30T23:46:04.666Z,22.48
2022-07-30T23:48:38.107Z,22.44
2022-07-30T23:51:06.610Z,22.51
2022-07-30T23:53:34.833Z,22.49
2022-07-30T23:56:03.450Z,22.34
2022-07-30T23:58:31.735Z,22.49
